Time;durP1;ratioP1;P1;durP2;ratioP2;P2;SDS_P1;SDS_P2;PMS_P1;PMS_P2;Temp;Humidity;BMP_temperature;BMP_pressure;BME280_temperature;BME280_humidity;BME280_pressure;Samples;Min_cycle;Max_cycle;Signal;HPM_P1;HPM_P2
2023/04/26 00:02:23;;;;;;;8.40;2.50;;;;;;;5.46;100.00;99729.47;4925556;29;20620;-78
2023/04/26 00:04:56;;;;;;;10.90;3.38;;;5.40;99.90;;;5.49;100.00;99726.00;4926318;29;20268;-78
2023/04/26 00:07:25;;;;;;;9.80;2.95;;;;;;;5.44;100.00;99718.06;4923090;29;20231;-78
2023/04/26 00:09:53;;;;;;;9.90;2.97;;;;;;;5.49;100.00;99711.16;4922790;29;20340;-78
2023/04/26 00:12:20;;;;;;;12.02;3.60;;;;;;;5.54;100.00;99722.63;4916715;29;20266;-79
2023/04/26 00:14:48;;;;;;;11.55;3.50;;;;;;;5.49;100.00;99712.91;4928118;29;20305;-78
2023/04/26 00:17:15;;;;;;;8.23;2.38;;;;;;;5.52;100.00;99716.47;4928776;29;20243;-78
2023/04/26 00:19:44;;;;;;;8.35;2.53;;;;;;;5.43;100.00;99717.19;4923013;29;20270;-78
2023/04/26 00:22:11;;;;;;;13.73;3.95;;;;;;;5.42;100.00;99702.31;4925821;29;20293;-78
2023/04/26 00:24:39;;;;;;;8.77;2.63;;;;;;;5.39;100.00;99710.13;4931495;29;20301;-78
2023/04/26 00:27:09;;;;;;;8.52;2.65;;;;;;;5.30;100.00;99709.94;4927019;29;20329;-78
2023/04/26 00:29:36;;;;;;;12.20;3.65;;;;;;;5.36;100.00;99715.31;4923857;29;20238;-78
2023/04/26 00:32:05;;;;;;;16.85;4.93;;;5.30;99.90;;;5.38;100.00;99710.09;4925477;29;20242;-79
2023/04/26 00:34:36;;;;;;;6.65;2.20;;;5.10;99.90;;;5.32;100.00;99710.84;4928629;29;20241;-78
2023/04/26 00:37:04;;;;;;;6.13;1.95;;;5.30;99.90;;;5.32;100.00;99709.97;4923698;29;20266;-78
2023/04/26 00:39:32;;;;;;;8.75;2.60;;;;;;;5.25;100.00;99719.47;4933305;29;20301;-79
2023/04/26 00:41:59;;;;;;;8.13;2.55;;;;;;;5.26;100.00;99710.75;4925648;29;20258;-79
2023/04/26 00:44:27;;;;;;;8.93;2.78;;;;;;;5.26;100.00;99699.38;4927636;29;20239;-79
2023/04/26 00:46:54;;;;;;;7.97;2.42;;;;;;;5.26;100.00;99694.13;4911570;29;20262;-79
2023/04/26 00:49:25;;;;;;;9.40;2.75;;;5.20;99.90;;;5.16;100.00;99679.94;4911283;29;20250;-79
2023/04/26 00:51:53;;;;;;;6.82;2.08;;;5.10;99.90;;;5.12;100.00;99683.34;4910211;29;20642;-79
2023/04/26 00:54:20;;;;;;;9.00;2.65;;;5.10;99.90;;;5.10;100.00;99687.69;4912341;29;20242;-78
2023/04/26 00:56:50;;;;;;;7.32;2.13;;;;;;;5.08;100.00;99702.50;4927949;29;20238;-79
2023/04/26 00:59:21;;;;;;;10.55;3.25;;;5.00;99.90;;;5.11;100.00;99715.66;4930165;29;20285;-78
2023/04/26 01:01:48;;;;;;;13.55;4.03;;;;;;;5.07;100.00;99729.56;4917800;29;20245;-78
2023/04/26 01:04:16;;;;;;;10.75;3.10;;;;;;;5.00;100.00;99719.81;4906923;29;20261;-78
2023/04/26 01:06:44;;;;;;;15.43;4.40;;;;;;;4.97;100.00;99728.50;4932746;29;20293;-78
2023/04/26 01:09:14;;;;;;;20.58;5.97;;;4.90;99.90;;;4.88;100.00;99724.81;4902641;29;20230;-78
2023/04/26 01:11:43;;;;;;;14.02;4.18;;;4.70;99.90;;;4.67;100.00;99728.75;4919647;29;20246;-79
2023/04/26 01:14:10;;;;;;;14.80;4.30;;;;;;;4.62;100.00;99742.59;4906932;29;20261;-78
2023/04/26 01:16:39;;;;;;;12.10;3.47;;;;;;;4.62;100.00;99761.81;4931150;29;20603;-78
2023/04/26 01:19:14;;;;;;;8.43;2.45;;;4.50;99.90;;;4.59;100.00;99772.22;4928708;29;20338;-78
2023/04/26 01:21:42;;;;;;;9.82;2.97;;;;;;;4.55;100.00;99773.00;4930886;29;20372;-78
2023/04/26 01:24:11;;;;;;;16.83;4.90;;;4.50;99.90;;;4.51;100.00;99771.16;4929058;29;20238;-78
2023/04/26 01:26:44;;;;;;;8.88;2.63;;;4.50;99.90;;;4.64;100.00;99790.66;4926609;29;20318;-78
2023/04/26 01:29:18;;;;;;;7.70;2.30;;;4.50;99.90;;;4.60;100.00;99781.84;4927468;29;20245;-78
2023/04/26 01:31:46;;;;;;;10.40;3.03;;;4.40;99.90;;;4.40;100.00;99788.34;4930965;29;21004;-78
2023/04/26 01:34:14;;;;;;;6.32;1.95;;;;;;;4.35;100.00;99800.47;4926035;29;20243;-79
2023/04/26 01:36:42;;;;;;;9.90;2.83;;;;;;;4.27;100.00;99804.63;4933265;29;20321;-79
2023/04/26 01:39:09;;;;;;;9.35;2.92;;;;;;;4.08;100.00;99806.78;4931747;29;20287;-78
2023/04/26 01:41:36;;;;;;;10.85;3.17;;;;;;;4.14;100.00;99814.78;4924074;29;20321;-78
2023/04/26 01:44:04;;;;;;;10.95;3.13;;;6.20;99.90;;;4.27;100.00;99822.94;4930126;29;20243;-78
2023/04/26 01:46:31;;;;;;;7.30;2.22;;;;;;;4.32;100.00;99831.78;4931981;29;20258;-79
2023/04/26 01:48:59;;;;;;;6.90;2.38;;;;;;;4.30;100.00;99830.88;4929583;29;20238;-78
2023/04/26 01:51:26;;;;;;;8.95;2.75;;;;;;;4.31;100.00;99843.09;4920416;29;20307;-78
2023/04/26 01:53:53;;;;;;;8.30;2.47;;;;;;;4.36;100.00;99838.88;4935087;29;20317;-78
2023/04/26 01:56:23;;;;;;;7.95;2.55;;;4.30;99.90;;;4.35;100.00;99839.72;4933402;29;20317;-79
2023/04/26 01:58:51;;;;;;;7.78;2.38;;;;;;;4.42;100.00;99839.91;4927327;29;20289;-78
2023/04/26 02:01:19;;;;;;;6.70;1.98;;;;;;;4.47;100.00;99842.63;4929298;29;20265;-78
2023/04/26 02:03:48;;;;;;;5.45;1.80;;;;;;;4.41;100.00;99843.38;4934127;29;20249;-78
2023/04/26 02:06:15;;;;;;;7.65;2.38;;;;;;;4.35;100.00;99832.75;4914579;29;20266;-79
2023/04/26 02:08:42;;;;;;;9.68;3.20;;;;;;;4.34;100.00;99845.81;4935127;29;20234;-79
2023/04/26 02:11:10;;;;;;;8.82;2.60;;;;;;;4.28;100.00;99837.81;4924849;29;20251;-78
2023/04/26 02:13:37;;;;;;;6.15;1.92;;;;;;;4.10;100.00;99840.84;4927324;29;20239;-78
2023/04/26 02:16:06;;;;;;;9.43;2.72;;;;;;;4.08;100.00;99853.00;4930718;29;20258;-78
2023/04/26 02:18:34;;;;;;;9.80;2.92;;;;;;;4.10;100.00;99854.81;4935510;29;20750;-78
2023/04/26 02:21:01;;;;;;;6.68;2.03;;;;;;;4.05;100.00;99866.00;4929292;29;20226;-79
2023/04/26 02:23:29;;;;;;;6.95;2.10;;;;;;;3.82;100.00;99860.13;4930300;29;20234;-78
2023/04/26 02:25:56;;;;;;;11.48;3.25;;;;;;;3.57;100.00;99861.19;4933297;29;20234;-78
2023/04/26 02:28:24;;;;;;;8.43;2.35;;;;;;;3.43;100.00;99879.13;4926695;29;20250;-78
2023/04/26 02:30:51;;;;;;;35.25;6.53;;;;;;;3.29;100.00;99892.63;4954124;23;20238;-78
2023/04/26 02:33:19;;;;;;;5.72;1.77;;;;;;;3.13;100.00;99904.34;4946602;28;20279;-76
2023/04/26 02:35:48;;;;;;;10.35;3.25;;;3.20;99.90;;;3.28;100.00;99932.66;4937978;28;20242;-76
2023/04/26 02:38:16;;;;;;;7.20;2.22;;;3.10;99.90;;;3.21;100.00;99931.59;4947474;28;20242;-73
2023/04/26 02:40:44;;;;;;;5.45;1.80;;;;;;;3.35;100.00;99945.06;4945118;28;20785;-73
2023/04/26 02:43:11;;;;;;;7.13;2.20;;;;;;;3.26;100.00;99947.41;4945354;28;20389;-73
2023/04/26 02:45:42;;;;;;;7.30;2.38;;;3.00;99.90;;;3.04;100.00;99957.19;4949079;28;20300;-73
2023/04/26 02:48:09;;;;;;;5.70;1.80;;;;;;;3.06;100.00;99968.59;4946813;28;20707;-71
2023/04/26 02:50:37;;;;;;;6.07;1.90;;;;;;;2.99;100.00;99978.78;4946011;28;20329;-71
2023/04/26 02:53:04;;;;;;;7.80;2.50;;;;;;;2.71;100.00;99987.47;4949983;28;20284;-71
2023/04/26 02:55:31;;;;;;;6.97;2.15;;;;;;;2.60;100.00;100005.38;4942751;29;20246;-71
2023/04/26 02:57:59;;;;;;;9.75;3.08;;;;;;;2.58;100.00;100020.06;4943515;28;20669;-71
2023/04/26 03:00:27;;;;;;;10.73;3.30;;;;;;;2.62;100.00;100032.41;4939283;28;20334;-73
2023/04/26 03:02:55;;;;;;;10.13;3.08;;;;;;;2.70;100.00;100043.13;4942367;28;20273;-73
2023/04/26 03:05:23;;;;;;;8.45;2.50;;;2.60;99.90;;;2.62;100.00;100047.19;4945950;28;20232;-72
2023/04/26 03:07:51;;;;;;;6.40;2.08;;;;;;;2.79;100.00;100073.03;4944839;28;20233;-72
2023/04/26 03:10:18;;;;;;;6.35;1.95;;;;;;;2.80;100.00;100085.25;4938704;28;20321;-71
2023/04/26 03:12:45;;;;;;;7.13;2.25;;;;;;;2.12;100.00;100061.91;4946586;28;20324;-72
2023/04/26 03:15:13;;;;;;;6.18;1.90;;;;;;;2.17;100.00;100084.72;4946706;28;20237;-73
2023/04/26 03:17:42;;;;;;;8.07;2.50;;;;;;;2.12;100.00;100099.31;4947902;28;20336;-74
2023/04/26 03:20:10;;;;;;;11.38;3.35;;;;;;;2.05;100.00;100112.97;4942788;28;20230;-75
2023/04/26 03:22:37;;;;;;;5.85;1.85;;;;;;;2.05;100.00;100133.81;4945002;28;20258;-75
2023/04/26 03:25:06;;;;;;;7.90;2.45;;;;;;;2.01;100.00;100151.91;4940511;28;20324;-76
2023/04/26 03:27:33;;;;;;;7.43;2.42;;;;;;;2.03;100.00;100178.94;4941907;28;20233;-74
2023/04/26 03:30:02;;;;;;;11.18;3.28;;;;;;;1.87;100.00;100198.31;4947470;28;20237;-73
2023/04/26 03:32:30;;;;;;;6.00;1.90;;;;;;;1.83;100.00;100218.16;4948890;28;20600;-73
2023/04/26 03:34:58;;;;;;;6.40;2.03;;;;;;;1.84;100.00;100235.56;4945925;28;20266;-75
2023/04/26 03:37:25;;;;;;;8.25;2.63;;;;;;;1.90;100.00;100254.06;4939923;28;20269;-76
2023/04/26 03:39:53;;;;;;;9.32;2.97;;;;;;;1.81;100.00;100271.06;4948786;28;20317;-76
2023/04/26 03:42:20;;;;;;;7.93;2.58;;;;;;;1.83;100.00;100290.28;4945489;28;20273;-76
2023/04/26 03:44:47;;;;;;;5.47;1.77;;;;;;;1.59;100.00;100296.25;4945138;28;20242;-75
2023/04/26 03:47:15;;;;;;;7.50;2.40;;;;;;;1.48;100.00;100310.53;4943049;28;20336;-77
2023/04/26 03:49:42;;;;;;;6.22;1.90;;;;;;;1.66;100.00;100330.38;4952320;28;20261;-75
2023/04/26 03:52:10;;;;;;;14.02;4.22;;;;;;;1.62;100.00;100345.00;4948272;28;20305;-76
2023/04/26 03:54:37;;;;;;;5.85;1.88;;;1.40;99.90;;;1.59;100.00;100365.72;4948691;28;20241;-75
2023/04/26 03:57:04;;;;;;;6.70;2.15;;;;;;;1.67;100.00;100386.91;4950720;28;20265;-76
2023/04/26 03:59:31;;;;;;;4.82;1.63;;;1.70;99.90;;;1.80;100.00;100415.28;4947317;29;20798;-76
2023/04/26 04:01:59;;;;;;;5.95;1.92;;;;;;;1.76;100.00;100426.41;4949341;28;20269;-76
2023/04/26 04:04:27;;;;;;;5.60;1.90;;;;;;;1.86;100.00;100439.91;4951822;28;20276;-76
2023/04/26 04:06:54;;;;;;;5.68;1.85;;;;;;;1.65;100.00;100448.50;4952426;28;20249;-75
2023/04/26 04:09:22;;;;;;;5.22;1.77;;;;;;;1.63;100.00;100453.66;4946797;28;20380;-76
2023/04/26 04:11:50;;;;;;;6.35;2.00;;;;;;;1.64;100.00;100470.19;4945822;28;20237;-75
2023/04/26 04:14:17;;;;;;;5.90;1.90;;;;;;;1.48;100.00;100472.09;4949033;28;20268;-76
2023/04/26 04:16:45;;;;;;;6.63;2.13;;;;;;;1.29;100.00;100488.56;4952112;28;20237;-76
2023/04/26 04:19:12;;;;;;;7.43;2.47;;;;;;;1.42;100.00;100502.19;4943776;28;20676;-76
2023/04/26 04:21:42;;;;;;;6.10;2.00;;;;;;;1.21;100.00;100515.06;4940458;28;20257;-75
2023/04/26 04:24:10;;;;;;;6.43;2.03;;;;;;;1.41;100.00;100544.69;4951258;28;20303;-75
2023/04/26 04:26:38;;;;;;;7.55;2.33;;;;;;;1.43;100.00;100561.31;4943252;28;20257;-75
2023/04/26 04:29:07;;;;;;;5.95;1.90;;;;;;;1.45;100.00;100580.50;4950220;28;20245;-75
2023/04/26 04:31:35;;;;;;;6.38;2.00;;;;;;;1.17;100.00;100592.19;4947221;28;20241;-75
2023/04/26 04:34:03;;;;;;;8.60;2.60;;;;;;;1.23;100.00;100602.88;4950923;28;20257;-75
2023/04/26 04:36:31;;;;;;;6.38;2.03;;;1.40;99.90;;;1.24;100.00;100607.28;4951151;28;20261;-75
2023/04/26 04:38:58;;;;;;;7.53;2.40;;;;;;;1.28;100.00;100627.47;4952410;28;20250;-75
2023/04/26 04:41:26;;;;;;;7.95;2.38;;;;;;;1.38;100.00;100652.28;4943646;28;20272;-75
2023/04/26 04:43:54;;;;;;;11.07;3.30;;;;;;;1.50;100.00;100672.84;4946326;28;20577;-76
2023/04/26 04:46:21;;;;;;;7.32;2.22;;;;;;;1.70;100.00;100692.03;4949339;28;20240;-76
2023/04/26 04:48:49;;;;;;;8.25;2.55;;;;;;;1.73;100.00;100697.41;4950773;28;20233;-76
2023/04/26 04:51:16;;;;;;;7.63;2.35;;;;;;;1.76;100.00;100708.00;4943310;29;20253;-77
2023/04/26 04:53:44;;;;;;;8.65;2.65;;;;;;;1.76;100.00;100703.66;4951368;28;20236;-78
2023/04/26 04:56:11;;;;;;;3.15;1.17;;;;;;;1.65;100.00;100709.19;4949399;28;20328;-76
2023/04/26 04:58:39;;;;;;;6.80;2.15;;;;;;;1.78;100.00;100722.00;4947263;28;20244;-75
2023/04/26 05:01:06;;;;;;;11.18;3.53;;;;;;;1.82;100.00;100718.72;4945448;28;20262;-76
2023/04/26 05:03:34;;;;;;;8.23;2.65;;;;;;;1.87;100.00;100743.28;4946869;28;20272;-77
2023/04/26 05:06:01;;;;;;;6.25;1.90;;;;;;;1.98;100.00;100759.47;4950696;28;20245;-76
2023/04/26 05:08:29;;;;;;;8.30;2.40;;;;;;;1.99;100.00;100761.25;4925399;28;20234;-77
2023/04/26 05:10:56;;;;;;;7.07;2.15;;;;;;;2.20;100.00;100772.72;4946995;28;20286;-77
2023/04/26 05:13:24;;;;;;;6.20;2.03;;;;;;;2.09;100.00;100771.31;4944960;28;20317;-76
2023/04/26 05:15:51;;;;;;;7.60;2.42;;;;;;;2.25;100.00;100779.94;4920487;28;20233;-76
2023/04/26 05:18:18;;;;;;;7.13;2.15;;;;;;;2.34;100.00;100795.13;4924052;28;20237;-75
2023/04/26 05:20:46;;;;;;;11.40;3.40;;;;;;;2.44;100.00;100796.47;4946627;28;20293;-74
2023/04/26 05:23:13;;;;;;;7.07;2.15;;;2.40;99.90;;;2.42;100.00;100792.91;4952227;28;20249;-74
2023/04/26 05:25:40;;;;;;;10.13;3.35;;;;;;;2.50;100.00;100796.75;4984501;23;20254;-79
2023/04/26 05:28:11;;;;;;;7.00;2.22;;;2.60;99.90;;;2.66;100.00;100807.13;4942590;28;20262;-79
2023/04/26 05:30:38;;;;;;;6.43;2.17;;;2.60;99.90;;;2.61;100.00;100803.41;4943497;28;20314;-79
2023/04/26 05:33:06;;;;;;;7.65;2.50;;;;;;;2.72;100.00;100814.34;4944275;28;20268;-79
2023/04/26 05:35:34;;;;;;;7.18;2.38;;;;;;;2.76;100.00;100805.84;4940477;28;20306;-79
2023/04/26 05:38:01;;;;;;;7.47;2.38;;;;;;;2.85;100.00;100806.25;4943514;29;20273;-79
2023/04/26 05:40:29;;;;;;;6.30;2.00;;;;;;;2.92;100.00;100797.88;4935411;28;20766;-78
2023/04/26 05:42:57;;;;;;;5.72;1.95;;;;;;;2.91;100.00;100779.53;4929418;28;20246;-78
2023/04/26 05:45:24;;;;;;;7.78;2.40;;;;;;;2.97;100.00;100780.69;4932083;28;20254;-78
2023/04/26 05:47:52;;;;;;;9.95;3.28;;;;;;;3.16;100.00;100785.91;4932205;28;20259;-78
2023/04/26 05:50:19;;;;;;;7.18;2.38;;;;;;;3.18;100.00;100775.50;4919731;28;20280;-79
2023/04/26 05:52:46;;;;;;;6.72;2.25;;;;;;;3.22;100.00;100769.59;4934292;28;20249;-79
2023/04/26 05:55:14;;;;;;;7.43;2.47;;;;;;;3.34;100.00;100770.13;4928957;28;20342;-78
2023/04/26 05:57:42;;;;;;;6.20;2.15;;;;;;;3.51;100.00;100782.19;4936662;29;20254;-78
2023/04/26 06:00:12;;;;;;;5.45;1.92;;;3.60;99.90;;;3.66;100.00;100779.34;4934649;28;20254;-78
2023/04/26 06:02:40;;;;;;;6.57;2.15;;;3.80;99.90;;;3.80;100.00;100769.44;4921656;29;20238;-79
2023/04/26 06:05:09;;;;;;;9.88;2.95;;;3.80;99.90;;;3.90;100.00;100755.03;4936836;28;20226;-81
2023/04/26 06:07:38;;;;;;;5.68;1.77;;;3.70;99.90;;;4.10;100.00;100757.66;4925815;29;20298;-78
2023/04/26 06:10:06;;;;;;;4.50;1.55;;;4.00;99.90;;;4.17;100.00;100735.22;4934879;28;20751;-78
2023/04/26 06:12:34;;;;;;;10.13;3.20;;;;;;;4.26;100.00;100717.25;4928187;28;20253;-79
2023/04/26 06:15:02;;;;;;;9.85;3.10;;;;;;;4.40;100.00;100710.81;4933803;28;20261;-81
2023/04/26 06:17:30;;;;;;;8.43;2.60;;;;;;;4.53;100.00;100699.09;4937390;28;20246;-80
2023/04/26 06:19:57;;;;;;;7.57;2.33;;;;;;;4.67;100.00;100687.38;4931902;28;20234;-78
2023/04/26 06:22:25;;;;;;;10.77;3.28;;;;;;;4.81;100.00;100680.03;4936455;28;20237;-78
2023/04/26 06:24:53;;;;;;;8.27;2.53;;;;;;;5.19;100.00;100672.63;4933780;28;20234;-80
2023/04/26 06:27:20;;;;;;;8.20;2.50;;;;;;;5.32;100.00;100659.13;4932563;28;20242;-80
2023/04/26 06:29:49;;;;;;;8.40;2.42;;;;;;;5.36;100.00;100646.16;4932816;28;20614;-82
2023/04/26 06:32:18;;;;;;;14.80;4.47;;;5.30;99.90;;;5.50;100.00;100644.00;4932519;28;20325;-81
2023/04/26 06:34:49;;;;;;;7.45;2.35;;;;;;;5.51;100.00;100634.38;4933462;29;20242;-79
2023/04/26 06:37:19;;;;;;;7.50;2.42;;;5.50;99.90;;;5.66;100.00;100617.41;4930689;28;20263;-79
2023/04/26 06:39:49;;;;;;;13.25;3.92;;;5.70;99.90;;;5.93;100.00;100619.13;4935044;28;20250;-82
2023/04/26 06:42:16;;;;;;;16.20;4.70;;;;;;;5.97;100.00;100598.28;4934861;28;20258;-82
2023/04/26 06:44:44;;;;;;;9.27;3.10;;;;;;;6.20;100.00;100600.69;4929099;28;20333;-83
2023/04/26 06:47:11;;;;;;;7.47;2.38;;;;;;;6.18;100.00;100581.38;4932441;29;20230;-83
2023/04/26 06:49:39;;;;;;;11.00;3.50;;;;;;;6.30;100.00;100573.84;4918477;29;20242;-79
2023/04/26 06:52:07;;;;;;;10.65;3.17;;;;;;;6.53;100.00;100578.03;4928886;28;20796;-82
2023/04/26 06:55:04;;;;;;;8.55;2.75;;;6.40;99.90;;;6.60;100.00;100551.06;4933298;28;20246;-82
2023/04/26 06:57:40;;;;;;;10.60;3.33;;;6.60;99.90;;;6.81;100.00;100541.97;4912898;28;20280;-82
2023/04/26 07:00:51;;;;;;;6.43;2.03;;;6.70;99.90;;;6.78;100.00;100523.50;4933313;28;20247;-82
2023/04/26 07:03:19;;;;;;;6.10;2.13;;;;;;;7.01;100.00;100517.97;4933195;28;20230;-82
2023/04/26 07:05:47;;;;;;;6.35;2.17;;;;;;;7.21;100.00;100501.78;4934479;28;20271;-80
2023/04/26 07:08:14;;;;;;;6.63;2.25;;;;;;;7.33;100.00;100474.00;4935197;28;20262;-80
2023/04/26 07:10:41;;;;;;;7.97;2.55;;;;;;;7.53;100.00;100448.13;4931705;29;20305;-80
2023/04/26 07:13:09;;;;;;;8.00;2.58;;;;;;;7.51;100.00;100422.63;4929054;28;20286;-82
2023/04/26 07:15:36;;;;;;;8.00;2.65;;;;;;;7.49;100.00;100403.31;4927115;28;20230;-80
2023/04/26 07:18:04;;;;;;;6.28;2.08;;;;;;;7.53;100.00;100377.09;4923153;29;20689;-80
2023/04/26 07:20:31;;;;;;;5.78;1.95;;;;;;;7.59;100.00;100357.91;4932872;28;20242;-80
2023/04/26 07:22:58;;;;;;;5.13;1.70;;;7.70;99.90;;;7.82;100.00;100346.09;4928529;29;20289;-82
2023/04/26 07:25:25;;;;;;;10.82;3.20;;;;;;;7.87;100.00;100322.47;4934517;28;20274;-82
2023/04/26 07:27:57;;;;;;;6.22;2.15;;;7.90;99.90;;;8.06;100.00;100307.88;4934930;29;20230;-83
2023/04/26 07:30:24;;;;;;;5.57;2.10;;;8.00;99.90;;;8.17;100.00;100288.78;4932973;28;20246;-82
2023/04/26 07:32:52;;;;;;;5.20;1.80;;;;;;;8.07;100.00;100259.63;4935799;28;20250;-78
2023/04/26 07:35:20;;;;;;;5.72;2.17;;;;;;;8.37;100.00;100257.50;4940281;28;20241;-80
2023/04/26 07:37:47;;;;;;;5.45;1.90;;;;;;;8.61;100.00;100238.53;4941296;28;20242;-81
2023/04/26 07:40:14;;;;;;;9.20;3.25;;;8.30;99.90;;;8.34;100.00;100199.50;4944308;28;20249;-80
2023/04/26 07:42:42;;;;;;;8.68;2.95;;;;;;;8.72;100.00;100207.03;4946343;28;20394;-79
2023/04/26 07:45:10;;;;;;;6.00;2.05;;;;;;;8.58;100.00;100143.59;4941050;28;20241;-80
2023/04/26 07:47:37;;;;;;;5.00;1.70;;;;;;;8.71;100.00;100140.22;4928185;28;20246;-81
2023/04/26 07:50:05;;;;;;;6.25;2.10;;;8.70;99.90;;;8.73;100.00;100142.88;4933633;28;20246;-81
2023/04/26 07:52:33;;;;;;;8.68;2.97;;;8.70;99.90;;;8.60;100.00;100118.13;4932729;28;20385;-81
2023/04/26 07:55:00;;;;;;;6.65;2.22;;;;;;;8.55;100.00;100098.75;4933754;29;20250;-80
2023/04/26 07:57:28;;;;;;;5.90;1.85;;;;;;;8.88;100.00;100100.88;4930806;28;20230;-78
2023/04/26 07:59:55;;;;;;;5.82;1.92;;;;;;;9.10;100.00;100087.06;4931933;28;20281;-76
2023/04/26 08:02:23;;;;;;;8.00;2.72;;;;;;;9.14;100.00;100069.50;4927474;28;20230;-77
2023/04/26 08:05:10;;;;;;;5.13;1.80;;;;;;;9.03;100.00;100052.66;4929199;28;20234;-76
2023/04/26 08:07:38;;;;;;;7.13;2.22;;;;;;;9.11;100.00;100059.81;4930981;28;20237;-76
2023/04/26 08:10:06;;;;;;;5.97;2.00;;;9.10;99.90;;;9.18;100.00;100027.34;4932671;28;20273;-77
2023/04/26 08:12:35;;;;;;;4.93;1.70;;;9.30;99.90;;;9.40;100.00;100019.59;4933787;28;20289;-78
2023/04/26 08:15:05;;;;;;;5.10;1.67;;;;;;;10.01;100.00;100059.56;4930481;28;20242;-78
2023/04/26 08:17:33;;;;;;;8.85;2.95;;;;;;;10.09;100.00;100019.09;4934951;28;20238;-77
2023/04/26 08:20:01;;;;;;;6.13;2.10;;;;;;;9.86;100.00;99991.69;4933881;29;20238;-77
2023/04/26 08:22:28;;;;;;;7.13;2.20;;;;;;;10.30;100.00;100023.63;4934498;28;20730;-78
2023/04/26 08:24:56;;;;;;;7.07;2.25;;;;;;;9.71;100.00;99939.69;4933901;29;20340;-77
2023/04/26 08:27:23;;;;;;;6.60;2.03;;;;;;;10.21;100.00;99976.91;4935870;28;20276;-78
2023/04/26 08:29:50;;;;;;;5.22;1.85;;;;;;;10.06;100.00;99926.63;4936252;28;20265;-79
2023/04/26 08:32:18;;;;;;;10.07;3.13;;;;;;;10.28;100.00;99895.88;4926062;28;20263;-78
2023/04/26 08:34:46;;;;;;;7.03;2.30;;;;;;;10.39;100.00;99904.69;4921100;28;20234;-80
2023/04/26 08:37:13;;;;;;;6.15;2.03;;;;;;;10.25;100.00;99835.97;4935636;28;20297;-79
2023/04/26 08:39:40;;;;;;;7.05;2.20;;;;;;;10.84;100.00;99868.59;4935407;28;20231;-78
2023/04/26 08:42:16;;;;;;;8.05;2.58;;;10.50;99.90;;;10.61;100.00;99797.22;4928995;28;20280;-78
2023/04/26 08:44:45;;;;;;;6.05;2.10;;;10.70;99.90;;;10.72;100.00;99776.94;4928505;28;20234;-78
2023/04/26 08:47:31;;;;;;;4.70;1.55;;;11.20;99.90;;;11.12;100.00;99787.41;4934203;28;20230;-79
2023/04/26 08:50:02;;;;;;;6.05;1.98;;;11.50;99.90;;;11.63;100.00;99811.88;4934630;29;20246;-78
2023/04/26 08:52:31;;;;;;;6.80;2.13;;;11.50;99.90;;;11.35;100.00;99745.84;4930363;28;20274;-79
2023/04/26 08:54:59;;;;;;;5.30;1.73;;;11.40;99.90;;;11.20;100.00;99656.81;4931774;28;20338;-78
2023/04/26 08:57:27;;;;;;;6.50;1.90;;;;;;;11.41;100.00;99608.13;4938842;28;20341;-79
2023/04/26 08:59:57;;;;;;;8.27;2.47;;;11.90;99.90;;;11.87;100.00;99594.56;4927731;28;20263;-79
2023/04/26 09:02:24;;;;;;;5.93;1.85;;;;;;;11.97;100.00;99522.03;4933967;28;20264;-78
2023/04/26 09:04:52;;;;;;;6.85;2.10;;;;;;;12.54;100.00;99554.03;4929288;28;20290;-78
2023/04/26 09:07:55;;;;;;;7.07;2.22;;;12.40;99.90;;;12.07;100.00;99445.97;4937025;28;20281;-77
2023/04/26 09:10:24;;;;;;;4.65;1.60;;;;;;;11.97;100.00;99449.63;4922068;28;20276;-77
2023/04/26 09:12:55;;;;;;;8.05;2.72;;;11.90;99.90;;;11.77;100.00;99379.22;4934033;28;20238;-76
2023/04/26 09:15:25;;;;;;;5.38;1.83;;;12.20;99.90;;;12.64;100.00;99518.53;4931168;28;20238;-77
2023/04/26 09:17:53;;;;;;;4.75;1.60;;;;;;;12.22;100.00;99424.56;4933902;28;20239;-77
2023/04/26 09:20:28;;;;;;;5.53;2.00;;;;;;;12.34;100.00;99428.81;4935506;28;20238;-77
2023/04/26 09:23:09;;;;;;;5.55;1.85;;;13.00;99.90;;;11.91;100.00;99306.66;4933899;28;20292;-77
2023/04/26 09:25:36;;;;;;;5.88;1.90;;;11.90;99.90;;;11.50;100.00;99308.00;4934795;28;20246;-77
2023/04/26 09:28:20;;;;;;;6.20;2.13;;;11.70;99.90;;;11.93;100.00;99302.19;4931706;28;20642;-77
2023/04/26 09:30:48;;;;;;;8.13;2.63;;;12.70;99.90;;;12.94;100.00;99458.84;4936566;28;20298;-78
2023/04/26 09:33:15;;;;;;;8.98;2.60;;;;;;;13.64;100.00;99484.22;4936942;28;20291;-78
2023/04/26 09:35:43;;;;;;;10.18;2.92;;;13.30;99.90;;;13.06;100.00;99291.47;4937879;28;20230;-78
2023/04/26 09:38:16;;;;;;;7.78;2.25;;;13.50;99.90;;;13.39;100.00;99363.41;4941983;28;20234;-79
2023/04/26 09:40:48;;;;;;;11.10;3.38;;;13.70;99.90;;;13.82;100.00;99410.38;4938452;28;20262;-78
2023/04/26 09:43:19;;;;;;;10.32;3.13;;;13.70;99.90;;;13.79;100.00;99355.50;4940152;28;20233;-78
2023/04/26 09:45:50;;;;;;;7.15;2.10;;;14.10;99.90;;;13.72;100.00;99295.44;4935761;28;20235;-79
2023/04/26 09:48:31;;;;;;;6.63;1.92;;;14.50;99.90;;;14.56;100.00;99373.34;4940777;28;20239;-79
2023/04/26 09:51:12;;;;;;;9.10;2.90;;;13.70;99.90;;;13.12;100.00;99128.56;4924190;29;20256;-78
2023/04/26 09:53:48;;;;;;;7.78;2.53;;;13.30;99.90;;;13.48;100.00;99172.03;4946920;28;20234;-78
2023/04/26 09:56:20;;;;;;;8.35;3.05;;;14.40;99.90;;;14.58;100.00;99286.38;4943621;28;20285;-79
2023/04/26 09:59:04;;;;;;;7.75;2.22;;;13.50;99.90;;;13.15;100.00;98963.94;4949998;28;20297;-79
2023/04/26 10:01:32;;;;;;;9.35;2.72;;;14.00;99.90;;;14.12;100.00;99194.38;4940834;28;20266;-79
2023/04/26 10:04:00;;;;;;;10.75;3.38;;;14.10;99.90;;;14.01;100.00;99157.44;4942690;28;20234;-79
2023/04/26 10:06:28;;;;;;;10.77;3.20;;;;;;;13.32;100.00;98956.44;4938709;29;20258;-79
2023/04/26 10:08:56;;;;;;;8.68;2.60;;;;;;;12.76;100.00;98802.16;4945586;29;20274;-79
2023/04/26 10:11:25;;;;;;;8.60;2.70;;;13.30;99.90;;;13.34;100.00;98936.03;4945713;29;20244;-79
2023/04/26 10:13:53;;;;;;;9.88;3.15;;;;;;;13.30;100.00;98872.44;4939723;28;20727;-79
2023/04/26 10:16:21;;;;;;;8.02;2.30;;;;;;;14.16;100.00;99043.66;4937601;28;20238;-79
2023/04/26 10:18:49;;;;;;;10.90;3.15;;;;;;;13.92;100.00;98947.72;4939471;28;20222;-79
2023/04/26 10:21:27;;;;;;;8.02;2.38;;;14.60;99.90;;;14.56;100.00;99064.75;4934392;28;20704;-85
2023/04/26 10:23:55;;;;;;;9.73;3.00;;;;;;;13.62;100.00;98827.28;4932533;29;20234;-80
2023/04/26 10:26:53;;;;;;;7.30;2.38;;;13.90;99.90;;;14.17;100.00;98897.41;4930631;29;20242;-78
2023/04/26 10:29:25;;;;;;;6.63;2.20;;;14.10;99.90;;;13.95;100.00;98923.72;4935273;28;20230;-79
2023/04/26 10:32:04;;;;;;;11.50;3.83;;;13.90;99.90;;;13.60;100.00;98838.84;4933832;28;20231;-81
2023/04/26 10:34:34;;;;;;;7.57;2.42;;;14.00;99.90;;;14.08;100.00;98913.63;4930777;28;20238;-80
2023/04/26 10:37:17;;;;;;;7.80;2.35;;;13.80;99.90;;;13.30;100.00;98695.44;4935736;29;20238;-80
2023/04/26 10:39:46;;;;;;;9.25;3.10;;;14.00;99.90;;;14.08;100.00;98847.16;4935332;28;20230;-79
2023/04/26 10:42:24;;;;;;;11.27;3.83;;;14.50;99.90;;;14.44;100.00;98842.56;4938274;28;20313;-79
2023/04/26 10:44:57;;;;;;;8.75;3.10;;;;;;;14.15;100.00;98810.63;4936481;28;20230;-79
2023/04/26 10:47:31;;;;;;;7.20;2.55;;;14.40;99.90;;;14.17;100.00;98830.06;4940835;28;20230;-79
2023/04/26 10:50:07;;;;;;;3.95;1.48;;;14.80;99.90;;;14.60;100.00;98909.44;4924012;29;20263;-79
2023/04/26 10:52:36;;;;;;;8.50;2.92;;;;;;;14.30;100.00;98860.66;4940568;28;20238;-78
2023/04/26 10:55:05;;;;;;;6.03;2.08;;;14.30;99.90;;;13.99;100.00;98720.75;4939820;28;20329;-79
2023/04/26 10:57:51;;;;;;;6.57;2.38;;;13.50;99.90;;;13.93;100.00;98712.09;4937304;28;20234;-78
2023/04/26 11:00:28;;;;;;;8.85;2.92;;;14.50;99.90;;;14.15;100.00;98739.72;4956913;28;20231;-79
2023/04/26 11:03:03;;;;;;;5.53;1.80;;;14.50;99.90;;;14.24;100.00;98754.50;4942160;28;20294;-79
2023/04/26 11:05:46;;;;;;;5.63;1.88;;;14.90;99.90;;;15.27;100.00;98934.72;4940068;28;20355;-79
2023/04/26 11:08:18;;;;;;;6.60;2.17;;;;;;;15.29;100.00;98916.03;4944011;28;20253;-79
2023/04/26 11:10:51;;;;;;;9.18;2.92;;;15.20;99.90;;;14.91;100.00;98758.47;4938309;28;20235;-79
2023/04/26 11:13:19;;;;;;;7.72;2.58;;;;;;;15.30;100.00;98790.78;4939433;28;20241;-79